Observation data for Morton on 04/24/2019      Previous  Date  Next       Current Mesonet Observations  Soil Data  Daily Summary Page  Observations in Plain Language
KMNS 240500Z 04006KT 10/09 A3005 RMK A01 T00960086  RH  096%=      5-min Rain = 0
KMNS 240505Z 04007KT 10/09 A3004 RMK A01 T00960086  RH  096%=      5-min Rain = 0
KMNS 240510Z 04006KT 10/09 A3005 RMK A01 T00960086  RH  096%=      5-min Rain = 0
KMNS 240515Z 04007KT 10/09 A3004 RMK A01 T00950085  RH  096%=      5-min Rain = 0
KMNS 240520Z 05007KT 10/08 A3004 RMK A01 T00950084  RH  096%=      5-min Rain = 0
KMNS 240525Z 05007KT 09/08 A3004 RMK A01 T00940084  RH  096%=      5-min Rain = 0
KMNS 240530Z 06007KT 09/08 A3004 RMK A01 T00930083  RH  096%=      5-min Rain = 0
KMNS 240535Z 05006KT 09/08 A3004 RMK A01 T00930082  RH  096%=      5-min Rain = 0
KMNS 240540Z 03006KT 09/08 A3004 RMK A01 T00920081  RH  095%=      5-min Rain = 0
KMNS 240545Z 02005KT 09/08 A3004 RMK A01 T00900079  RH  095%=      5-min Rain = 0
KMNS 240550Z 36005KT 09/08 A3004 RMK A01 T00870075  RH  095%=      5-min Rain = 0
KMNS 240555Z 36006KT 08/07 A3004 RMK A01 T00840073  RH  096%=      5-min Rain = 0
KMNS 240600Z 35007KT 08/07 A3004 RMK A01 T00810071  RH  096%=      5-min Rain = 0
KMNS 240605Z 35007KT 08/07 A3003 RMK A01 T00800071  RH  097%=      5-min Rain = 0
KMNS 240610Z 35007KT 08/07 A3003 RMK A01 T00810072  RH  097%=      5-min Rain = 0
KMNS 240615Z 35008KT 08/08 A3003 RMK A01 T00820075  RH  098%=      5-min Rain = 0
KMNS 240620Z 34009KT 08/08 A3002 RMK A01 T00830075  RH  098%=      5-min Rain = 0
KMNS 240625Z 34008KT 08/08 A3002 RMK A01 T00820075  RH  098%=      5-min Rain = 0
KMNS 240630Z 33008KT 08/07 A3002 RMK A01 T00810073  RH  098%=      5-min Rain = 0
KMNS 240635Z 33009KT 08/07 A3002 RMK A01 T00810074  RH  098%=      5-min Rain = 0
KMNS 240640Z 33011KT 08/07 A3002 RMK A01 T00800073  RH  098%=      5-min Rain = 0
KMNS 240645Z 33011KT 08/07 A3001 RMK A01 T00800073  RH  098%=      5-min Rain = 0
KMNS 240650Z 34011KT 08/07 A3001 RMK A01 T00800073  RH  098%=      5-min Rain = 0
KMNS 240655Z 34009KT 08/07 A3001 RMK A01 T00800074  RH  098%=      5-min Rain = 0
KMNS 240700Z 35008KT 08/07 A3001 RMK A01 T00810073  RH  098%=      5-min Rain = 0
KMNS 240705Z 35007KT 08/07 A3001 RMK A01 T00800073  RH  097%=      5-min Rain = 0
KMNS 240710Z 35008KT 08/07 A3001 RMK A01 T00800071  RH  097%=      5-min Rain = 0
KMNS 240715Z 34009KT 08/07 A3001 RMK A01 T00790070  RH  096%=      5-min Rain = 0
KMNS 240720Z 34009KT 08/07 A3001 RMK A01 T00780069  RH  096%=      5-min Rain = 0
KMNS 240725Z 34008KT 08/07 A3001 RMK A01 T00770068  RH  096%=      5-min Rain = 0
KMNS 240730Z 34008KT 08/07 A3001 RMK A01 T00760067  RH  096%=      5-min Rain = 0
KMNS 240735Z 00006KT 08/07 A3002 RMK A01 T00760067  RH  097%=      5-min Rain = 0
KMNS 240740Z 04004KT 08/07 A3003 RMK A01 T00750067  RH  097%=      5-min Rain = 0
KMNS 240745Z 11007G12KT 07/06 A3005 RMK A01 T00730064  RH  097%=      5-min Rain = 0
KMNS 240750Z 12008KT 07/07 A3005 RMK A01 T00730066  RH  097%=      5-min Rain = 0
KMNS 240755Z 11005KT 07/07 A3004 RMK A01 T00730065  RH  098%=      5-min Rain = 0
KMNS 240800Z 10004KT 07/07 A3003 RMK A01 T00720065  RH  098%=      5-min Rain = 0
KMNS 240805Z 11006KT 07/06 A3003 RMK A01 T00680061  RH  097%=      5-min Rain = 0
KMNS 240810Z 10004KT 07/06 A3002 RMK A01 T00670061  RH  098%=      5-min Rain = 0
KMNS 240815Z 07002KT 07/06 A3002 RMK A01 T00680062  RH  098%=      5-min Rain = 0
KMNS 240820Z 03002KT 07/06 A3002 RMK A01 T00700064  RH  098%=      5-min Rain = 0
KMNS 240825Z 03002KT 07/06 A3001 RMK A01 T00660060  RH  098%=      5-min Rain = 0
KMNS 240830Z 04001KT 06/06 A3002 RMK A01 T00640058  RH  098%=      5-min Rain = 0
KMNS 240835Z 11000KT 06/05 A3002 RMK A01 T00600054  RH  098%=      5-min Rain = 0
KMNS 240840Z 11000KT 06/06 A3002 RMK A01 T00620057  RH  099%=      5-min Rain = 0
KMNS 240845Z 30002KT 06/06 A3001 RMK A01 T00600055  RH  098%=      5-min Rain = 0
KMNS 240850Z 31003KT 06/05 A3001 RMK A01 T00590054  RH  099%=      5-min Rain = 0
KMNS 240855Z 29003KT 06/05 A3001 RMK A01 T00580053  RH  099%=      5-min Rain = 0
KMNS 240900Z 27003KT 06/05 A3001 RMK A01 T00590054  RH  099%=      5-min Rain = 0
KMNS 240905Z 28002KT 06/05 A3001 RMK A01 T00590054  RH  099%=      5-min Rain = 0
KMNS 240910Z 27001KT 06/05 A3001 RMK A01 T00580053  RH  099%=      5-min Rain = 0
KMNS 240915Z 27002KT 06/06 A3002 RMK A01 T00590055  RH  099%=      5-min Rain = 0
KMNS 240920Z 28002KT 06/06 A3002 RMK A01 T00590055  RH  099%=      5-min Rain = 0
KMNS 240925Z 28002KT 06/06 A3002 RMK A01 T00600056  RH  100%=      5-min Rain = 0
KMNS 240930Z 27002KT 06/06 A3002 RMK A01 T00600056  RH  100%=      5-min Rain = 0
KMNS 240935Z 26001KT 06/06 A3002 RMK A01 T00590055  RH  100%=      5-min Rain = 0
KMNS 240940Z 26001KT 06/06 A3002 RMK A01 T00590055  RH  100%=      5-min Rain = 0
KMNS 240945Z 26001KT 06/06 A3002 RMK A01 T00590056  RH  100%=      5-min Rain = 0
KMNS 240950Z 28002KT 06/05 A3002 RMK A01 T00570053  RH  100%=      5-min Rain = 0
KMNS 240955Z 29003KT 05/05 A3002 RMK A01 T00540050  RH  100%=      5-min Rain = 0
KMNS 241000Z 29002KT 06/05 A3003 RMK A01 T00550052  RH  100%=      5-min Rain = 0
KMNS 241005Z 29002KT 06/05 A3003 RMK A01 T00560053  RH  100%=      5-min Rain = 0
KMNS 241010Z 29002KT 06/05 A3003 RMK A01 T00570053  RH  100%=      5-min Rain = 0
KMNS 241015Z 29003KT 06/05 A3003 RMK A01 T00560052  RH  100%=      5-min Rain = 0
KMNS 241020Z 29003KT 05/05 A3003 RMK A01 T00540051  RH  100%=      5-min Rain = 0
KMNS 241025Z 29004KT 05/05 A3003 RMK A01 T00530050  RH  100%=      5-min Rain = 0
KMNS 241030Z 28004KT 05/05 A3003 RMK A01 T00530050  RH  100%=      5-min Rain = 0
KMNS 241035Z 28004KT 05/05 A3003 RMK A01 T00520049  RH  100%=      5-min Rain = 0
KMNS 241040Z 29004KT 05/05 A3002 RMK A01 T00520049  RH  100%=      5-min Rain = 0
KMNS 241045Z 29005KT 05/05 A3002 RMK A01 T00520049  RH  100%=      5-min Rain = 0
KMNS 241050Z 30006KT 05/05 A3001 RMK A01 T00530049  RH  100%=      5-min Rain = 0
KMNS 241055Z 30005KT 05/05 A3001 RMK A01 T00510048  RH  100%=      5-min Rain = 0
KMNS 241100Z 30006KT 05/05 A3001 RMK A01 T00510048  RH  100%=      5-min Rain = 0
KMNS 241105Z 31006KT 05/05 A30 RMK A01 T00510048  RH  100%=      5-min Rain = 0
KMNS 241110Z 32007KT 05/05 A2999 RMK A01 T00500047  RH  100%=      5-min Rain = 0
KMNS 241115Z 31007KT 05/05 A2999 RMK A01 T00510048  RH  100%=      5-min Rain = 0.01
KMNS 241120Z 31007KT 05/05 A2999 RMK A01 T00520049  RH  100%=      5-min Rain = 0
KMNS 241125Z 31007KT 05/05 A2999 RMK A01 T00520049  RH  100%=      5-min Rain = 0
KMNS 241130Z 30006KT 05/05 A2999 RMK A01 T00510048  RH  100%=      5-min Rain = 0
KMNS 241135Z 31007KT 05/05 A2999 RMK A01 T00510048  RH  100%=      5-min Rain = 0
KMNS 241140Z 31008KT 05/05 A2999 RMK A01 T00510048  RH  100%=      5-min Rain = 0
KMNS 241145Z 31007KT 05/05 A2999 RMK A01 T00520049  RH  100%=      5-min Rain = 0
KMNS 241150Z 30005KT 05/05 A2999 RMK A01 T00520049  RH  100%=      5-min Rain = 0
KMNS 241155Z 28004KT 05/05 A2999 RMK A01 T00520049  RH  100%=      5-min Rain = 0
KMNS 241200Z 28004KT 05/05 A30 RMK A01 T00510048  RH  100%=      5-min Rain = 0
KMNS 241205Z 28004KT 05/05 A30 RMK A01 T00490046  RH  100%=      5-min Rain = 0
KMNS 241210Z 27004KT 05/05 A30 RMK A01 T00490046  RH  100%=      5-min Rain = 0
KMNS 241215Z 28005KT 05/05 A30 RMK A01 T00480046  RH  100%=      5-min Rain = 0
KMNS 241220Z 28004KT 05/05 A30 RMK A01 T00490046  RH  100%=      5-min Rain = 0
KMNS 241225Z 27003KT 05/05 A3001 RMK A01 T00500047  RH  100%=      5-min Rain = 0
KMNS 241230Z 28003KT 05/05 A3001 RMK A01 T00500047  RH  100%=      5-min Rain = 0
KMNS 241235Z 29003KT 05/05 A3001 RMK A01 T00510048  RH  100%=      5-min Rain = 0
KMNS 241240Z 30003KT 05/05 A3001 RMK A01 T00530050  RH  100%=      5-min Rain = 0
KMNS 241245Z 31002KT 05/05 A3001 RMK A01 T00540051  RH  100%=      5-min Rain = 0
KMNS 241250Z 31002KT 05/05 A3001 RMK A01 T00540051  RH  100%=      5-min Rain = 0
KMNS 241255Z 29002KT 05/05 A3002 RMK A01 T00540051  RH  100%=      5-min Rain = 0
KMNS 241300Z 29003KT 05/05 A3002 RMK A01 T00540051  RH  100%=      5-min Rain = 0
KMNS 241305Z 28003KT 06/05 A3002 RMK A01 T00560053  RH  100%=      5-min Rain = 0
KMNS 241310Z 27003KT 06/06 A3002 RMK A01 T00600057  RH  100%=      5-min Rain = 0
KMNS 241315Z 28004KT 06/06 A3003 RMK A01 T00620058  RH  100%=      5-min Rain = 0
KMNS 241320Z 28004KT 07/06 A3003 RMK A01 T00650062  RH  100%=      5-min Rain = 0
KMNS 241325Z 30005KT 07/07 A3002 RMK A01 T00690065  RH  100%=      5-min Rain = 0
KMNS 241330Z 30006KT 07/07 A3002 RMK A01 T00700067  RH  100%=      5-min Rain = 0
KMNS 241335Z 30005KT 07/07 A3002 RMK A01 T00730069  RH  100%=      5-min Rain = 0
KMNS 241340Z 31006KT 08/07 A3001 RMK A01 T00760072  RH  100%=      5-min Rain = 0
KMNS 241345Z 31005KT 08/08 A3002 RMK A01 T00790076  RH  100%=      5-min Rain = 0
KMNS 241350Z 31005KT 08/08 A3002 RMK A01 T00830079  RH  100%=      5-min Rain = 0
KMNS 241355Z 30005KT 09/08 A3002 RMK A01 T00860081  RH  100%=      5-min Rain = 0
KMNS 241400Z 30006KT 09/08 A3002 RMK A01 T00880084  RH  100%=      5-min Rain = 0
KMNS 241405Z 31007KT 09/09 A3002 RMK A01 T00900085  RH  100%=      5-min Rain = 0
KMNS 241410Z 30006KT 09/09 A3002 RMK A01 T00930086  RH  098%=      5-min Rain = 0
KMNS 241415Z 30007KT 10/08 A3002 RMK A01 T00950084  RH  095%=      5-min Rain = 0
KMNS 241420Z 30007KT 10/08 A3001 RMK A01 T00990082  RH  091%=      5-min Rain = 0
KMNS 241425Z 31007KT 10/08 A3001 RMK A01 T01030079  RH  087%=      5-min Rain = 0
KMNS 241430Z 31009KT 11/08 A30 RMK A01 T01050076  RH  085%=      5-min Rain = 0
KMNS 241435Z 31009KT 11/08 A2999 RMK A01 T01070076  RH  083%=      5-min Rain = 0
KMNS 241440Z 31008KT 11/08 A2999 RMK A01 T01100078  RH  082%=      5-min Rain = 0
KMNS 241445Z 31009KT 11/08 A2999 RMK A01 T01130079  RH  082%=      5-min Rain = 0
KMNS 241450Z 30010KT 11/08 A2999 RMK A01 T01140079  RH  081%=      5-min Rain = 0
KMNS 241455Z 31007KT 12/08 A30 RMK A01 T01160081  RH  081%=      5-min Rain = 0
KMNS 241500Z 30007KT 12/08 A30 RMK A01 T01200081  RH  079%=      5-min Rain = 0
KMNS 241505Z 30007KT 12/08 A30 RMK A01 T01220080  RH  078%=      5-min Rain = 0
KMNS 241510Z 30007KT 12/08 A30 RMK A01 T01230077  RH  076%=      5-min Rain = 0
KMNS 241515Z 31007KT 12/08 A30 RMK A01 T01230076  RH  075%=      5-min Rain = 0
KMNS 241520Z 29007KT 13/07 A30 RMK A01 T01260070  RH  071%=      5-min Rain = 0
KMNS 241525Z 29006KT 13/07 A3001 RMK A01 T01310068  RH  067%=      5-min Rain = 0
KMNS 241530Z 29006KT 13/07 A3001 RMK A01 T01320066  RH  066%=      5-min Rain = 0
KMNS 241535Z 28007KT 14/07 A3001 RMK A01 T01360071  RH  066%=      5-min Rain = 0
KMNS 241540Z 30007KT 14/07 A3001 RMK A01 T01360070  RH  066%=      5-min Rain = 0
KMNS 241545Z 31007KT 14/07 A3001 RMK A01 T01370072  RH  067%=      5-min Rain = 0
KMNS 241550Z 30006KT 14/07 A3001 RMK A01 T01410071  RH  065%=      5-min Rain = 0
KMNS 241555Z 29007KT 14/07 A3001 RMK A01 T01420070  RH  064%=      5-min Rain = 0
KMNS 241600Z 29007KT 14/07 A3001 RMK A01 T01440070  RH  063%=      5-min Rain = 0
KMNS 241605Z 29006KT 15/08 A3001 RMK A01 T01490075  RH  063%=      5-min Rain = 0
KMNS 241610Z 30006KT 15/08 A3001 RMK A01 T01500075  RH  062%=      5-min Rain = 0
KMNS 241615Z 28006KT 15/08 A3001 RMK A01 T01510076  RH  063%=      5-min Rain = 0
KMNS 241620Z 30005KT 15/08 A3001 RMK A01 T01530075  RH  061%=      5-min Rain = 0
KMNS 241625Z 29006KT 15/07 A3001 RMK A01 T01520073  RH  061%=      5-min Rain = 0
KMNS 241630Z 27005G10KT 16/07 A3002 RMK A01 T01570074  RH  059%=      5-min Rain = 0
KMNS 241635Z 24004G9KT 15/07 A3002 RMK A01 T01540069  RH  059%=      5-min Rain = 0
KMNS 241640Z 25004KT 15/07 A3002 RMK A01 T01530070  RH  059%=      5-min Rain = 0
KMNS 241645Z 25006KT 15/07 A3002 RMK A01 T01530070  RH  059%=      5-min Rain = 0
KMNS 241650Z 27005KT 16/07 A3002 RMK A01 T01580068  RH  057%=      5-min Rain = 0
KMNS 241655Z 23002KT 16/06 A3002 RMK A01 T01580063  RH  054%=      5-min Rain = 0
KMNS 241700Z 16002KT 16/06 A3002 RMK A01 T01590062  RH  054%=      5-min Rain = 0
KMNS 241705Z 28004KT 16/07 A3002 RMK A01 T01590067  RH  056%=      5-min Rain = 0
KMNS 241710Z 27004KT 16/07 A3002 RMK A01 T01580066  RH  056%=      5-min Rain = 0
KMNS 241715Z 25003KT 16/06 A3001 RMK A01 T01590063  RH  054%=      5-min Rain = 0
KMNS 241720Z 24003KT 16/06 A3001 RMK A01 T01590063  RH  054%=      5-min Rain = 0
KMNS 241725Z 21003KT 16/06 A3001 RMK A01 T01640061  RH  052%=      5-min Rain = 0
KMNS 241730Z 20001KT 17/06 A30 RMK A01 T01670062  RH  051%=      5-min Rain = 0
KMNS 241735Z 22002KT 16/06 A30 RMK A01 T01620064  RH  053%=      5-min Rain = 0
KMNS 241740Z 27004KT 16/07 A30 RMK A01 T01600065  RH  055%=      5-min Rain = 0
KMNS 241745Z 27003KT 16/06 A30 RMK A01 T01620063  RH  053%=      5-min Rain = 0
KMNS 241750Z 24001KT 17/06 A30 RMK A01 T01680058  RH  049%=      5-min Rain = 0
KMNS 241755Z 16002KT 18/06 A2999 RMK A01 T01780059  RH  047%=      5-min Rain = 0
KMNS 241800Z 15003KT 18/06 A2999 RMK A01 T01760062  RH  048%=      5-min Rain = 0
KMNS 241805Z 18001KT 17/06 A2999 RMK A01 T01690062  RH  050%=      5-min Rain = 0
KMNS 241810Z 23005KT 18/07 A2999 RMK A01 T01750069  RH  051%=      5-min Rain = 0
KMNS 241815Z 21003KT 17/06 A2999 RMK A01 T01740063  RH  049%=      5-min Rain = 0
KMNS 241820Z 25002KT 18/07 A2999 RMK A01 T01840069  RH  048%=      5-min Rain = 0
KMNS 241825Z 30005KT 18/07 A2998 RMK A01 T01830069  RH  049%=      5-min Rain = 0
KMNS 241830Z 34004KT 18/07 A2998 RMK A01 T01800071  RH  050%=      5-min Rain = 0
KMNS 241835Z 36002KT 18/07 A2998 RMK A01 T01780068  RH  050%=      5-min Rain = 0
KMNS 241840Z 34005KT 18/07 A2997 RMK A01 T01780069  RH  050%=      5-min Rain = 0
KMNS 241845Z 35005KT 18/07 A2997 RMK A01 T01790072  RH  051%=      5-min Rain = 0
KMNS 241850Z 31002KT 18/06 A2997 RMK A01 T01790064  RH  048%=      5-min Rain = 0
KMNS 241855Z 32004KT 18/07 A2997 RMK A01 T01840070  RH  049%=      5-min Rain = 0
KMNS 241900Z 33005KT 18/07 A2997 RMK A01 T01830072  RH  049%=      5-min Rain = 0
KMNS 241905Z 36003KT 17/06 A2997 RMK A01 T01740063  RH  049%=      5-min Rain = 0
KMNS 241910Z 29002KT 17/06 A2996 RMK A01 T01730063  RH  049%=      5-min Rain = 0
KMNS 241915Z 29002G9KT 18/07 A2996 RMK A01 T01830069  RH  049%=      5-min Rain = 0
KMNS 241920Z 31005G10KT 19/07 A2996 RMK A01 T01860069  RH  048%=      5-min Rain = 0
KMNS 241925Z 28004KT 19/07 A2996 RMK A01 T01860067  RH  047%=      5-min Rain = 0
KMNS 241930Z 26005KT 19/07 A2996 RMK A01 T01930066  RH  045%=      5-min Rain = 0
KMNS 241935Z 28004G11KT 19/07 A2995 RMK A01 T01930066  RH  044%=      5-min Rain = 0
KMNS 241940Z 32003KT 19/06 A2995 RMK A01 T01890062  RH  044%=      5-min Rain = 0
KMNS 241945Z 27006KT 20/07 A2995 RMK A01 T01960066  RH  044%=      5-min Rain = 0
KMNS 241950Z 27002G7KT 19/06 A2995 RMK A01 T01890059  RH  044%=      5-min Rain = 0
KMNS 241955Z 25006G13KT 19/06 A2994 RMK A01 T01920062  RH  044%=      5-min Rain = 0
KMNS 242000Z 28006KT 20/06 A2994 RMK A01 T01990062  RH  042%=      5-min Rain = 0
KMNS 242005Z 25005KT 20/07 A2994 RMK A01 T02000065  RH  042%=      5-min Rain = 0
KMNS 242010Z 25005KT 20/06 A2994 RMK A01 T02010063  RH  042%=      5-min Rain = 0
KMNS 242015Z 28009KT 21/06 A2994 RMK A01 T02060063  RH  040%=      5-min Rain = 0
KMNS 242020Z 29007KT 20/06 A2994 RMK A01 T02020061  RH  041%=      5-min Rain = 0
KMNS 242025Z 29005KT 20/06 A2994 RMK A01 T01980061  RH  042%=      5-min Rain = 0
KMNS 242030Z 26006KT 20/06 A2994 RMK A01 T02040061  RH  040%=      5-min Rain = 0
KMNS 242035Z 25006G11KT 20/06 A2994 RMK A01 T01960059  RH  042%=      5-min Rain = 0
KMNS 242040Z 29007KT 20/06 A2994 RMK A01 T01980062  RH  042%=      5-min Rain = 0
KMNS 242045Z 26005KT 20/07 A2993 RMK A01 T02030065  RH  041%=      5-min Rain = 0
KMNS 242050Z 21006KT 21/07 A2993 RMK A01 T02060065  RH  041%=      5-min Rain = 0
KMNS 242055Z 22005KT 20/06 A2993 RMK A01 T02030063  RH  041%=      5-min Rain = 0
KMNS 242100Z 17002KT 21/06 A2993 RMK A01 T02070062  RH  040%=      5-min Rain = 0
KMNS 242105Z 25007G15KT 21/06 A2993 RMK A01 T02060060  RH  039%=      5-min Rain = 0
KMNS 242110Z 25005KT 20/06 A2992 RMK A01 T01960058  RH  041%=      5-min Rain = 0
KMNS 242115Z 22006G11KT 20/06 A2992 RMK A01 T02040062  RH  041%=      5-min Rain = 0
KMNS 242120Z 35003KT 20/06 A2992 RMK A01 T02030057  RH  039%=      5-min Rain = 0
KMNS 242125Z 27004G9KT 21/06 A2991 RMK A01 T02110059  RH  038%=      5-min Rain = 0
KMNS 242130Z 28007KT 21/06 A2991 RMK A01 T02140058  RH  037%=      5-min Rain = 0
KMNS 242135Z 24007G13KT 22/06 A2991 RMK A01 T02160060  RH  037%=      5-min Rain = 0
KMNS 242140Z 25006KT 21/06 A2991 RMK A01 T02140058  RH  037%=      5-min Rain = 0
KMNS 242145Z 26002KT 21/06 A299 RMK A01 T02060056  RH  038%=      5-min Rain = 0
KMNS 242150Z 24004KT 21/06 A299 RMK A01 T02110061  RH  038%=      5-min Rain = 0
KMNS 242155Z 25007KT 21/06 A299 RMK A01 T02110057  RH  037%=      5-min Rain = 0
KMNS 242200Z 28005KT 21/06 A299 RMK A01 T02100057  RH  038%=      5-min Rain = 0
KMNS 242205Z 31005KT 21/06 A299 RMK A01 T02080058  RH  038%=      5-min Rain = 0
KMNS 242210Z 27007KT 21/06 A299 RMK A01 T02130063  RH  039%=      5-min Rain = 0
KMNS 242215Z 21005KT 21/06 A299 RMK A01 T02080058  RH  038%=      5-min Rain = 0
KMNS 242220Z 20004KT 20/06 A2989 RMK A01 T02040058  RH  039%=      5-min Rain = 0
KMNS 242225Z 21003KT 20/06 A2989 RMK A01 T02000056  RH  040%=      5-min Rain = 0
KMNS 242230Z 22006KT 21/06 A2989 RMK A01 T02090061  RH  039%=      5-min Rain = 0
KMNS 242235Z 25007KT 21/06 A2989 RMK A01 T02140059  RH  038%=      5-min Rain = 0
KMNS 242240Z 23003KT 21/06 A2989 RMK A01 T02140059  RH  037%=      5-min Rain = 0
KMNS 242245Z 26005G11KT 22/06 A2989 RMK A01 T02160060  RH  037%=      5-min Rain = 0
KMNS 242250Z 26006KT 21/06 A2989 RMK A01 T02140057  RH  037%=      5-min Rain = 0
KMNS 242255Z 33002KT 21/06 A2989 RMK A01 T02110056  RH  037%=      5-min Rain = 0
KMNS 242300Z 22005KT 21/06 A2989 RMK A01 T02140059  RH  037%=      5-min Rain = 0
KMNS 242305Z 21006KT 21/06 A2989 RMK A01 T02120059  RH  038%=      5-min Rain = 0
KMNS 242310Z 23005KT 21/06 A2989 RMK A01 T02130056  RH  037%=      5-min Rain = 0
KMNS 242315Z 28003KT 21/05 A2989 RMK A01 T02130050  RH  035%=      5-min Rain = 0
KMNS 242320Z 30007KT 21/05 A2989 RMK A01 T02090051  RH  036%=      5-min Rain = 0
KMNS 242325Z 30004KT 21/05 A2989 RMK A01 T02110047  RH  035%=      5-min Rain = 0
KMNS 242330Z 29003KT 22/04 A2989 RMK A01 T02150044  RH  033%=      5-min Rain = 0
KMNS 242335Z 30005KT 21/05 A2989 RMK A01 T02100047  RH  035%=      5-min Rain = 0
KMNS 242340Z 28005KT 21/05 A2989 RMK A01 T02050052  RH  038%=      5-min Rain = 0
KMNS 242345Z 32003KT 20/05 A2989 RMK A01 T02030049  RH  037%=      5-min Rain = 0
KMNS 242350Z 32003KT 20/05 A2989 RMK A01 T02030049  RH  037%=      5-min Rain = 0
KMNS 242355Z 31001KT 21/05 A2989 RMK A01 T02050048  RH  037%=      5-min Rain = 0
KMNS 250000Z 32001KT 21/05 A2989 RMK A01 T02130050  RH  035%=      5-min Rain = 0
KMNS 250005Z 00002KT 21/05 A2989 RMK A01 T02140047  RH  034%=      5-min Rain = 0
KMNS 250010Z 01002KT 21/05 A2989 RMK A01 T02140050  RH  035%=      5-min Rain = 0
KMNS 250015Z 00004KT 21/05 A2989 RMK A01 T02120050  RH  035%=      5-min Rain = 0
KMNS 250020Z 34003KT 21/05 A2989 RMK A01 T02060045  RH  035%=      5-min Rain = 0
KMNS 250025Z 34003KT 20/05 A2989 RMK A01 T02030050  RH  037%=      5-min Rain = 0
KMNS 250030Z 33002KT 20/06 A2989 RMK A01 T02030056  RH  039%=      5-min Rain = 0
KMNS 250035Z 34002KT 21/05 A2989 RMK A01 T02090054  RH  037%=      5-min Rain = 0
KMNS 250040Z 36003KT 21/06 A2989 RMK A01 T02070055  RH  038%=      5-min Rain = 0
KMNS 250045Z 00002KT 21/06 A2988 RMK A01 T02060058  RH  039%=      5-min Rain = 0
KMNS 250050Z 36004KT 21/06 A2988 RMK A01 T02050055  RH  038%=      5-min Rain = 0
KMNS 250055Z 35003KT 20/06 A2988 RMK A01 T02040059  RH  040%=      5-min Rain = 0
KMNS 250100Z 34004KT 20/06 A2988 RMK A01 T02020060  RH  041%=      5-min Rain = 0
KMNS 250105Z 34003KT 20/06 A2988 RMK A01 T02000064  RH  042%=      5-min Rain = 0
KMNS 250110Z 34003KT 20/07 A2988 RMK A01 T01980066  RH  043%=      5-min Rain = 0
KMNS 250115Z 34003KT 20/06 A2988 RMK A01 T01950064  RH  044%=      5-min Rain = 0
KMNS 250120Z 33002KT 19/06 A2988 RMK A01 T01930062  RH  043%=      5-min Rain = 0
KMNS 250125Z 34002KT 19/06 A2988 RMK A01 T01910058  RH  043%=      5-min Rain = 0
KMNS 250130Z 34002KT 19/06 A2988 RMK A01 T01870058  RH  044%=      5-min Rain = 0
KMNS 250135Z 33001KT 18/06 A2989 RMK A01 T01820062  RH  047%=      5-min Rain = 0
KMNS 250140Z 32000KT 18/07 A2989 RMK A01 T01780071  RH  051%=      5-min Rain = 0
KMNS 250145Z 27001KT 17/07 A2989 RMK A01 T01720069  RH  052%=      5-min Rain = 0
KMNS 250150Z 23001KT 17/07 A2989 RMK A01 T01700074  RH  055%=      5-min Rain = 0
KMNS 250155Z 24000KT 17/07 A2989 RMK A01 T01690072  RH  054%=      5-min Rain = 0
KMNS 250200Z 00000KT 17/07 A2989 RMK A01 T01670070  RH  054%=      5-min Rain = 0
KMNS 250205Z 03001KT 16/08 A299 RMK A01 T01640075  RH  057%=      5-min Rain = 0
KMNS 250210Z 08002KT 16/08 A299 RMK A01 T01620076  RH  058%=      5-min Rain = 0
KMNS 250215Z 14002KT 16/08 A299 RMK A01 T01590082  RH  062%=      5-min Rain = 0
KMNS 250220Z 17003KT 16/08 A299 RMK A01 T01550077  RH  061%=      5-min Rain = 0
KMNS 250225Z 16003KT 16/07 A299 RMK A01 T01570074  RH  059%=      5-min Rain = 0
KMNS 250230Z 17003KT 16/08 A2991 RMK A01 T01600081  RH  061%=      5-min Rain = 0
KMNS 250235Z 19003KT 16/08 A2991 RMK A01 T01610080  RH  060%=      5-min Rain = 0
KMNS 250240Z 20003KT 15/09 A2991 RMK A01 T01530085  RH  065%=      5-min Rain = 0
KMNS 250245Z 20002KT 15/09 A2991 RMK A01 T01500087  RH  068%=      5-min Rain = 0
KMNS 250250Z 18003KT 15/08 A2991 RMK A01 T01530084  RH  065%=      5-min Rain = 0
KMNS 250255Z 18004KT 16/08 A2992 RMK A01 T01560082  RH  063%=      5-min Rain = 0
KMNS 250300Z 19004KT 15/08 A2992 RMK A01 T01530082  RH  065%=      5-min Rain = 0
KMNS 250305Z 21004KT 15/08 A2992 RMK A01 T01470083  RH  068%=      5-min Rain = 0
KMNS 250310Z 21004KT 15/08 A2992 RMK A01 T01460083  RH  068%=      5-min Rain = 0
KMNS 250315Z 20004KT 14/08 A2992 RMK A01 T01440083  RH  069%=      5-min Rain = 0
KMNS 250320Z 19004KT 15/08 A2992 RMK A01 T01450084  RH  069%=      5-min Rain = 0
KMNS 250325Z 21004KT 14/08 A2992 RMK A01 T01420084  RH  070%=      5-min Rain = 0
KMNS 250330Z 20004KT 14/09 A2992 RMK A01 T01400085  RH  072%=      5-min Rain = 0
KMNS 250335Z 20004KT 14/09 A2993 RMK A01 T01380085  RH  072%=      5-min Rain = 0
KMNS 250340Z 21005KT 14/08 A2993 RMK A01 T01350084  RH  073%=      5-min Rain = 0
KMNS 250345Z 23004KT 13/08 A2993 RMK A01 T01330084  RH  074%=      5-min Rain = 0
KMNS 250350Z 24003KT 13/08 A2993 RMK A01 T01300084  RH  076%=      5-min Rain = 0
KMNS 250355Z 25003KT 13/09 A2993 RMK A01 T01310085  RH  076%=      5-min Rain = 0
KMNS 250400Z 25003KT 13/09 A2993 RMK A01 T01330088  RH  076%=      5-min Rain = 0
KMNS 250405Z 24004KT 13/09 A2993 RMK A01 T01310087  RH  077%=      5-min Rain = 0
KMNS 250410Z 24004KT 13/09 A2993 RMK A01 T01260085  RH  079%=      5-min Rain = 0
KMNS 250415Z 24003KT 13/09 A2993 RMK A01 T01250086  RH  079%=      5-min Rain = 0
KMNS 250420Z 24003KT 12/09 A2993 RMK A01 T01240085  RH  079%=      5-min Rain = 0
KMNS 250425Z 14003KT 12/08 A2993 RMK A01 T01170082  RH  081%=      5-min Rain = 0
KMNS 250430Z 24002KT 12/09 A2993 RMK A01 T01200087  RH  083%=      5-min Rain = 0
KMNS 250435Z 27003KT 13/09 A2993 RMK A01 T01300086  RH  077%=      5-min Rain = 0
KMNS 250440Z 26003KT 13/08 A2993 RMK A01 T01300082  RH  075%=      5-min Rain = 0
KMNS 250445Z 26004KT 13/08 A2992 RMK A01 T01250080  RH  076%=      5-min Rain = 0
KMNS 250450Z 26005KT 12/08 A2992 RMK A01 T01200077  RH  077%=      5-min Rain = 0
KMNS 250455Z 27006KT 11/08 A2992 RMK A01 T01140075  RH  079%=      5-min Rain = 0

Page generated in 0.0154 seconds.